Time;durP1;ratioP1;P1;durP2;ratioP2;P2;SDS_P1;SDS_P2;PMS_P1;PMS_P2;Temp;Humidity;BMP_temperature;BMP_pressure;BME280_temperature;BME280_humidity;BME280_pressure;Samples;Min_cycle;Max_cycle;Signal;HPM_P1;HPM_P2
2023/06/02 00:02:04;;;;;;;5.20;4.00;;;17.40;71.50;;;;;;5022283;28;20525;-84
2023/06/02 00:04:30;;;;;;;5.50;3.17;;;17.40;70.30;;;;;;5021036;28;20465;-83
2023/06/02 00:07:03;;;;;;;7.57;3.73;;;17.50;69.80;;;;;;5020099;28;20462;-84
2023/06/02 00:09:36;;;;;;;4.50;3.23;;;17.40;70.80;;;;;;5018379;28;20444;-84
2023/06/02 00:12:02;;;;;;;5.47;3.20;;;17.30;70.40;;;;;;5020335;28;20541;-84
2023/06/02 00:14:30;;;;;;;8.83;3.73;;;17.20;69.80;;;;;;5013976;28;20442;-86
2023/06/02 00:17:00;;;;;;;5.07;3.00;;;17.20;69.80;;;;;;5005908;28;20532;-86
2023/06/02 00:19:30;;;;;;;3.73;3.43;;;17.40;69.00;;;;;;5002845;28;20462;-85
2023/06/02 00:21:57;;;;;;;7.27;3.17;;;17.40;67.90;;;;;;5003487;28;20537;-83
2023/06/02 00:24:27;;;;;;;4.30;3.90;;;17.30;68.50;;;;;;5016235;28;20481;-87
2023/06/02 00:26:54;;;;;;;5.77;4.07;;;17.20;68.50;;;;;;5001897;28;20549;-84
2023/06/02 00:29:20;;;;;;;6.20;4.17;;;17.30;68.20;;;;;;5002030;28;20464;-83
2023/06/02 00:31:48;;;;;;;6.70;4.00;;;17.20;68.70;;;;;;5004208;28;20470;-87
2023/06/02 00:34:20;;;;;;;4.43;3.53;;;17.10;69.00;;;;;;5028519;28;20566;-85
2023/06/02 00:36:47;;;;;;;5.17;4.03;;;17.00;68.80;;;;;;5004208;28;20482;-85
2023/06/02 00:39:14;;;;;;;5.60;4.53;;;17.10;68.20;;;;;;5007572;28;20897;-83
2023/06/02 00:41:46;;;;;;;7.00;4.30;;;17.20;67.90;;;;;;5007402;28;20445;-85
2023/06/02 00:44:14;;;;;;;4.70;4.20;;;17.20;68.30;;;;;;5007723;28;20852;-82
2023/06/02 00:46:41;;;;;;;5.10;4.43;;;17.20;67.00;;;;;;5005739;28;20518;-82
2023/06/02 00:49:07;;;;;;;4.03;3.57;;;17.20;67.00;;;;;;5004144;28;20458;-83
2023/06/02 00:51:35;;;;;;;4.60;3.80;;;17.00;67.50;;;;;;5004719;28;20482;-83
2023/06/02 00:54:02;;;;;;;3.77;3.37;;;16.80;68.10;;;;;;5022267;28;20490;-82
2023/06/02 00:56:29;;;;;;;3.80;3.30;;;16.70;69.10;;;;;;5025421;28;20566;-81
2023/06/02 00:58:55;;;;;;;5.40;3.53;;;16.70;69.10;;;;;;5025719;28;20526;-82
2023/06/02 01:01:22;;;;;;;6.03;3.67;;;16.60;69.20;;;;;;5025202;28;20446;-81
2023/06/02 01:03:52;;;;;;;4.13;3.63;;;16.70;69.20;;;;;;5018652;28;20549;-80
2023/06/02 01:06:31;;;;;;;4.83;3.37;;;16.70;68.90;;;;;;5016127;28;20533;-82
2023/06/02 01:08:59;;;;;;;5.37;4.03;;;16.80;67.90;;;;;;5001208;28;20529;-83
2023/06/02 01:11:26;;;;;;;5.40;4.10;;;16.90;67.70;;;;;;5001140;28;20549;-82
2023/06/02 01:13:54;;;;;;;3.80;3.30;;;16.90;67.50;;;;;;4999356;28;20481;-84
2023/06/02 01:16:22;;;;;;;4.93;3.30;;;16.80;67.50;;;;;;5011742;28;20481;-83
2023/06/02 01:18:51;;;;;;;3.87;3.47;;;16.70;67.60;;;;;;4999365;28;20461;-83
2023/06/02 01:21:23;;;;;;;4.10;2.70;;;16.70;67.60;;;;;;5000949;28;20454;-84
2023/06/02 01:23:57;;;;;;;4.93;3.07;;;16.60;67.50;;;;;;4997478;28;20469;-84
2023/06/02 01:26:25;;;;;;;4.90;2.70;;;16.50;67.70;;;;;;5001456;28;20489;-84
2023/06/02 01:28:51;;;;;;;4.33;2.50;;;16.40;67.90;;;;;;5002086;28;20533;-82
2023/06/02 01:31:28;;;;;;;3.13;2.90;;;16.40;68.20;;;;;;5001582;28;20517;-83
2023/06/02 01:34:13;;;;;;;3.90;3.20;;;16.30;68.30;;;;;;5000821;28;20482;-83
2023/06/02 01:36:44;;;;;;;4.47;2.80;;;16.50;68.20;;;;;;4999827;28;20490;-86
2023/06/02 01:39:12;;;;;;;4.40;3.10;;;16.40;68.00;;;;;;5000032;28;20462;-83
2023/06/02 01:41:43;;;;;;;4.43;3.30;;;16.60;67.70;;;;;;4996932;28;20465;-83
2023/06/02 01:44:11;;;;;;;3.80;2.70;;;16.60;67.20;;;;;;5002992;28;20494;-84
2023/06/02 01:46:40;;;;;;;3.80;3.17;;;16.50;67.30;;;;;;5003826;28;20485;-81
2023/06/02 01:49:15;;;;;;;3.50;3.07;;;16.40;67.60;;;;;;5002766;28;20478;-86
2023/06/02 01:51:45;;;;;;;5.57;2.90;;;16.50;67.20;;;;;;5002414;28;20486;-86
2023/06/02 01:54:12;;;;;;;3.80;3.40;;;16.60;66.60;;;;;;5002312;28;20508;-84
2023/06/02 01:56:39;;;;;;;3.80;3.23;;;16.50;66.70;;;;;;5005128;28;20656;-86
2023/06/02 01:59:07;;;;;;;4.80;2.80;;;16.50;66.40;;;;;;5004524;28;20468;-85
2023/06/02 02:01:34;;;;;;;5.97;3.40;;;16.50;66.90;;;;;;5008298;28;20450;-83
2023/06/02 02:04:01;;;;;;;4.67;3.53;;;16.40;66.40;;;;;;5001311;28;20469;-82
2023/06/02 02:06:34;;;;;;;3.13;2.93;;;16.30;67.00;;;;;;5003005;28;20458;-82
2023/06/02 02:09:09;;;;;;;2.90;2.70;;;16.20;67.20;;;;;;5001717;28;20571;-84
2023/06/02 02:11:38;;;;;;;5.07;3.80;;;16.20;67.50;;;;;;5014233;28;21201;-84
2023/06/02 02:14:04;;;;;;;5.80;3.40;;;16.20;67.30;;;;;;5005087;28;20516;-83
2023/06/02 02:16:32;;;;;;;5.30;3.57;;;16.10;68.00;;;;;;5004823;28;20801;-84
2023/06/02 02:18:59;;;;;;;4.27;3.73;;;16.10;68.40;;;;;;5004498;28;20490;-85
2023/06/02 02:21:25;;;;;;;6.43;3.80;;;16.30;67.40;;;;;;5004164;28;20461;-84
2023/06/02 02:23:53;;;;;;;6.90;3.47;;;16.40;66.70;;;;;;5004475;28;20457;-83
2023/06/02 02:26:20;;;;;;;3.60;3.30;;;16.20;67.00;;;;;;5004516;28;20461;-85
2023/06/02 02:28:47;;;;;;;5.67;2.60;;;16.00;68.40;;;;;;5003135;28;22096;-85
2023/06/02 02:31:14;;;;;;;4.43;3.00;;;15.90;69.40;;;;;;5005814;28;20482;-85
2023/06/02 02:33:41;;;;;;;3.03;2.83;;;16.10;69.50;;;;;;5004949;28;20478;-85
2023/06/02 02:36:08;;;;;;;3.80;3.50;;;16.20;69.40;;;;;;5007773;28;20446;-86
2023/06/02 02:38:35;;;;;;;7.20;3.27;;;16.20;68.90;;;;;;5015330;28;20470;-80
2023/06/02 02:41:02;;;;;;;5.20;3.40;;;16.30;68.00;;;;;;5020370;28;20509;-80
2023/06/02 02:43:29;;;;;;;3.63;3.33;;;16.30;67.70;;;;;;5013247;28;20462;-82
2023/06/02 02:45:55;;;;;;;3.40;3.10;;;16.20;67.80;;;;;;5010166;28;21421;-85
2023/06/02 02:48:22;;;;;;;3.27;3.00;;;16.10;67.80;;;;;;5008605;28;20561;-84
2023/06/02 02:50:50;;;;;;;5.33;3.07;;;16.10;68.30;;;;;;5007855;28;20470;-82
2023/06/02 02:53:18;;;;;;;4.87;3.00;;;16.10;67.80;;;;;;5008979;28;20451;-81
2023/06/02 02:55:45;;;;;;;4.77;2.80;;;16.10;67.20;;;;;;5006058;28;20458;-82
2023/06/02 02:58:12;;;;;;;3.30;3.00;;;16.00;67.40;;;;;;5010470;28;20537;-83
2023/06/02 03:00:39;;;;;;;4.10;3.27;;;15.90;67.50;;;;;;5011331;28;20454;-80
2023/06/02 03:03:06;;;;;;;4.30;3.30;;;15.80;67.40;;;;;;5010236;28;20474;-83
2023/06/02 03:05:34;;;;;;;4.53;3.80;;;15.90;67.60;;;;;;5010899;28;20486;-83
2023/06/02 03:08:05;;;;;;;3.73;3.33;;;16.10;66.40;;;;;;5007112;28;20505;-86
2023/06/02 03:10:32;;;;;;;5.83;4.00;;;16.10;65.80;;;;;;5013359;28;20481;-82
2023/06/02 03:12:58;;;;;;;3.57;2.90;;;16.00;66.00;;;;;;5022909;28;20525;-82
2023/06/02 03:15:27;;;;;;;5.10;3.47;;;15.80;66.20;;;;;;5018502;28;20473;-83
2023/06/02 03:17:55;;;;;;;7.30;3.37;;;15.80;66.70;;;;;;5018311;28;20470;-81
2023/06/02 03:20:22;;;;;;;6.30;3.93;;;15.90;66.50;;;;;;4992605;28;20466;-85
2023/06/02 03:22:50;;;;;;;6.87;3.70;;;15.90;66.10;;;;;;4997054;28;20462;-84
2023/06/02 03:25:20;;;;;;;4.50;3.50;;;15.80;66.60;;;;;;4998337;28;20463;-85
2023/06/02 03:27:49;;;;;;;4.40;3.70;;;15.90;66.30;;;;;;4995444;28;20474;-82
2023/06/02 03:30:20;;;;;;;4.10;3.70;;;15.90;66.40;;;;;;4994045;28;21081;-84
2023/06/02 03:32:47;;;;;;;4.67;3.30;;;15.80;66.10;;;;;;4996915;28;20450;-82
2023/06/02 03:35:14;;;;;;;6.90;3.93;;;15.80;66.10;;;;;;4996698;28;20553;-83
2023/06/02 03:37:41;;;;;;;5.13;3.50;;;15.70;66.10;;;;;;4995680;28;20519;-84
2023/06/02 03:40:09;;;;;;;5.53;4.00;;;15.80;66.10;;;;;;4996452;28;20504;-85
2023/06/02 03:42:37;;;;;;;6.70;4.00;;;15.80;65.60;;;;;;4999837;28;20811;-85
2023/06/02 03:45:05;;;;;;;4.23;3.83;;;15.60;65.70;;;;;;4997586;28;20571;-85
2023/06/02 03:47:31;;;;;;;4.97;3.17;;;15.50;66.50;;;;;;4997417;28;20536;-86
2023/06/02 03:49:58;;;;;;;3.87;3.50;;;15.50;67.00;;;;;;4998581;28;20457;-83
2023/06/02 03:52:26;;;;;;;4.10;3.80;;;15.50;66.70;;;;;;4998023;28;20522;-82
2023/06/02 03:54:54;;;;;;;5.70;3.40;;;15.50;66.80;;;;;;4999084;28;20501;-83
2023/06/02 03:57:21;;;;;;;5.63;3.83;;;15.40;66.40;;;;;;4998666;28;20482;-82
2023/06/02 03:59:48;;;;;;;5.43;4.20;;;15.60;66.40;;;;;;4998584;28;20535;-84
2023/06/02 04:02:17;;;;;;;6.80;4.23;;;15.70;66.40;;;;;;4998923;28;20458;-85
2023/06/02 04:04:44;;;;;;;5.50;4.23;;;15.60;65.70;;;;;;4998995;28;20438;-84
2023/06/02 04:07:11;;;;;;;4.80;3.80;;;15.50;65.30;;;;;;4997057;28;20877;-83
2023/06/02 04:09:38;;;;;;;7.70;4.50;;;15.40;65.60;;;;;;5001853;28;20489;-85
2023/06/02 04:12:05;;;;;;;4.90;4.13;;;15.30;65.90;;;;;;4998534;28;20558;-81
2023/06/02 04:14:33;;;;;;;4.80;4.40;;;15.30;66.10;;;;;;4998708;28;20454;-82
2023/06/02 04:16:59;;;;;;;6.60;4.40;;;15.40;66.10;;;;;;5016476;28;20568;-85
2023/06/02 04:19:26;;;;;;;7.77;4.47;;;15.30;66.00;;;;;;4999691;28;20450;-85
2023/06/02 04:21:53;;;;;;;4.23;3.57;;;15.20;66.20;;;;;;5000917;28;20473;-84
2023/06/02 04:24:20;;;;;;;5.13;4.63;;;15.40;66.00;;;;;;4999968;28;20447;-83
2023/06/02 04:26:47;;;;;;;5.30;4.20;;;15.30;65.70;;;;;;5000200;28;20458;-83
2023/06/02 04:29:14;;;;;;;6.13;4.70;;;15.20;65.90;;;;;;5002547;28;20446;-82
2023/06/02 04:31:44;;;;;;;4.90;4.27;;;15.30;65.80;;;;;;4998299;28;21163;-84
2023/06/02 04:34:12;;;;;;;7.10;4.37;;;15.30;66.20;;;;;;5006332;28;20462;-83
2023/06/02 04:36:40;;;;;;;7.07;4.40;;;15.40;65.80;;;;;;5003035;28;20478;-84
2023/06/02 04:39:08;;;;;;;8.20;4.07;;;15.60;65.40;;;;;;5003739;28;20472;-86
2023/06/02 04:41:36;;;;;;;6.13;3.90;;;15.40;65.00;;;;;;5007863;28;21021;-86
2023/06/02 04:44:05;;;;;;;5.10;4.00;;;15.50;65.60;;;;;;5008869;28;20542;-84
2023/06/02 04:46:32;;;;;;;5.50;4.87;;;15.70;65.30;;;;;;5007575;28;20450;-84
2023/06/02 04:49:07;;;;;;;5.07;4.67;;;15.60;64.80;;;;;;5007180;28;20449;-84
2023/06/02 04:51:34;;;;;;;4.23;3.83;;;15.40;64.70;;;;;;5012188;28;20983;-83
2023/06/02 04:54:01;;;;;;;4.60;3.77;;;15.40;65.10;;;;;;5012133;28;20453;-82
2023/06/02 04:56:28;;;;;;;4.57;4.13;;;15.40;64.50;;;;;;5004551;28;20842;-82
2023/06/02 04:58:55;;;;;;;6.70;4.20;;;15.30;64.70;;;;;;5006458;28;20468;-84
2023/06/02 05:01:22;;;;;;;4.60;3.97;;;15.30;64.70;;;;;;5006754;28;20457;-85
2023/06/02 05:03:53;;;;;;;4.53;4.13;;;15.20;64.70;;;;;;5007653;28;20454;-87
2023/06/02 05:06:20;;;;;;;8.13;3.53;;;15.00;64.70;;;;;;4998128;28;20469;-85
2023/06/02 05:08:47;;;;;;;4.93;3.80;;;15.00;64.90;;;;;;5006209;28;20460;-87
2023/06/02 05:11:14;;;;;;;4.57;3.70;;;15.00;64.70;;;;;;5010686;28;20488;-84
2023/06/02 05:13:46;;;;;;;5.17;3.53;;;15.00;65.10;;;;;;5020216;28;20516;-81
2023/06/02 05:16:23;;;;;;;5.20;3.97;;;15.00;65.10;;;;;;5022881;28;20504;-83
2023/06/02 05:19:03;;;;;;;10.47;3.83;;;15.00;64.40;;;;;;5023738;28;20446;-82
2023/06/02 05:21:33;;;;;;;3.80;3.20;;;15.10;64.60;;;;;;5025422;28;20442;-83
2023/06/02 05:24:00;;;;;;;7.43;4.10;;;15.10;64.70;;;;;;5008899;28;20461;-84
2023/06/02 05:26:27;;;;;;;4.70;4.00;;;15.10;64.40;;;;;;5004795;28;20458;-86
2023/06/02 05:28:54;;;;;;;6.70;3.67;;;15.20;64.00;;;;;;5009371;28;20462;-85
2023/06/02 05:31:21;;;;;;;6.23;3.53;;;15.10;63.90;;;;;;5010164;28;20545;-85
2023/06/02 05:36:23;;;;;;;4.03;3.50;;;15.30;64.40;;;;;;5072759;22;20485;-82
2023/06/02 05:38:50;;;;;;;4.37;4.07;;;15.40;64.10;;;;;;5005311;28;20477;-86
2023/06/02 05:41:17;;;;;;;3.97;3.67;;;15.30;63.60;;;;;;5009712;28;20453;-83
2023/06/02 05:43:44;;;;;;;5.30;3.80;;;15.20;63.90;;;;;;4987694;28;20458;-80
2023/06/02 05:46:11;;;;;;;6.33;3.20;;;15.40;62.80;;;;;;4995186;28;20462;-83
2023/06/02 05:48:38;;;;;;;5.53;4.27;;;15.30;63.20;;;;;;5008864;28;20474;-84
2023/06/02 05:51:05;;;;;;;4.80;3.43;;;15.20;64.10;;;;;;5007558;28;20454;-87
2023/06/02 05:53:32;;;;;;;6.57;3.60;;;15.30;64.60;;;;;;5011049;28;20512;-84
2023/06/02 05:55:59;;;;;;;6.00;3.60;;;15.10;63.30;;;;;;5041781;28;20519;-81
2023/06/02 05:58:25;;;;;;;5.37;3.50;;;15.40;63.30;;;;;;5021015;28;20520;-82
2023/06/02 06:00:52;;;;;;;6.10;3.57;;;15.40;62.80;;;;;;5027657;28;21249;-86
2023/06/02 06:03:19;;;;;;;3.73;2.83;;;15.40;63.40;;;;;;5009399;28;20457;-83
2023/06/02 06:05:46;;;;;;;5.73;3.80;;;15.40;63.40;;;;;;5008876;28;20466;-86
2023/06/02 06:08:15;;;;;;;4.13;2.87;;;15.10;63.50;;;;;;5006576;28;20479;-86
2023/06/02 06:10:42;;;;;;;3.60;3.30;;;15.10;64.50;;;;;;5006729;28;20500;-82
2023/06/02 06:13:09;;;;;;;4.73;3.10;;;15.60;64.00;;;;;;5010872;28;20489;-84
2023/06/02 06:15:36;;;;;;;4.10;3.40;;;15.60;62.70;;;;;;5008770;28;20446;-84
2023/06/02 06:18:04;;;;;;;6.67;4.00;;;15.60;62.70;;;;;;5008912;28;20588;-85
2023/06/02 06:20:30;;;;;;;3.50;3.20;;;15.50;62.00;;;;;;5010622;28;21324;-83
2023/06/02 06:22:59;;;;;;;3.97;3.57;;;15.30;62.00;;;;;;5026077;28;20879;-85
2023/06/02 06:25:27;;;;;;;8.57;3.63;;;15.20;62.30;;;;;;5008612;28;20711;-84
2023/06/02 06:27:54;;;;;;;5.30;3.13;;;15.20;63.00;;;;;;5006053;28;21083;-84
2023/06/02 06:30:21;;;;;;;5.27;3.47;;;15.20;63.30;;;;;;5008866;28;20464;-86
2023/06/02 06:32:51;;;;;;;7.30;3.60;;;15.00;63.70;;;;;;5007487;28;20485;-85
2023/06/02 06:35:21;;;;;;;4.30;3.70;;;15.20;64.50;;;;;;5022546;28;20459;-83
2023/06/02 06:37:48;;;;;;;3.63;2.63;;;15.40;64.50;;;;;;5008026;28;20601;-83
2023/06/02 06:40:15;;;;;;;3.93;3.50;;;15.40;63.80;;;;;;5006862;28;20481;-84
2023/06/02 06:42:42;;;;;;;5.60;3.33;;;15.40;63.00;;;;;;5011317;28;20454;-85
2023/06/02 06:45:10;;;;;;;7.33;3.23;;;15.40;63.00;;;;;;5021886;28;20534;-82
2023/06/02 06:47:36;;;;;;;8.00;3.60;;;15.20;62.80;;;;;;5045096;28;20557;-82
2023/06/02 06:50:05;;;;;;;4.87;3.17;;;15.40;63.80;;;;;;5028059;28;20453;-82
2023/06/02 06:52:32;;;;;;;4.57;3.23;;;15.50;63.40;;;;;;5025538;28;20516;-82
2023/06/02 06:55:02;;;;;;;4.80;3.33;;;15.50;63.00;;;;;;5026105;28;20530;-82
2023/06/02 06:57:29;;;;;;;4.57;3.00;;;15.80;62.70;;;;;;5015342;28;20568;-84
2023/06/02 06:59:57;;;;;;;8.97;3.80;;;15.80;62.50;;;;;;5004615;28;20948;-84
2023/06/02 07:02:30;;;;;;;5.73;3.90;;;16.10;61.50;;;;;;5000756;28;20458;-84
2023/06/02 07:05:22;;;;;;;7.60;3.97;;;16.10;61.10;;;;;;5008208;28;20483;-83
2023/06/02 07:07:49;;;;;;;5.37;4.20;;;16.10;61.10;;;;;;5022605;28;20462;-81
2023/06/02 07:10:20;;;;;;;4.30;3.63;;;16.10;60.60;;;;;;5022941;28;20435;-84
2023/06/02 07:12:47;;;;;;;7.07;3.73;;;16.10;60.60;;;;;;5003584;28;20569;-83
2023/06/02 07:15:14;;;;;;;7.10;3.70;;;16.30;59.80;;;;;;5004421;28;20464;-85
2023/06/02 07:17:45;;;;;;;6.60;3.47;;;16.20;59.80;;;;;;5004905;28;20482;-84
2023/06/02 07:20:13;;;;;;;5.70;3.10;;;16.20;59.50;;;;;;5004148;28;20462;-83
2023/06/02 07:22:43;;;;;;;9.43;3.40;;;16.30;59.60;;;;;;5001492;28;20467;-84
2023/06/02 07:25:19;;;;;;;7.23;3.13;;;16.60;59.70;;;;;;5016629;28;20558;-84
2023/06/02 07:31:47;;;;;;;4.47;4.07;;;16.90;58.90;;;;;;4995971;28;20458;-82
2023/06/02 07:35:01;;;;;;;3.97;3.30;;;17.10;58.10;;;;;;4968390;28;20457;-83
2023/06/02 07:37:32;;;;;;;9.60;3.47;;;17.00;58.40;;;;;;5003728;28;21069;-85
2023/06/02 07:40:00;;;;;;;6.50;3.50;;;17.00;58.10;;;;;;5002154;28;21087;-83
2023/06/02 07:42:28;;;;;;;8.03;4.43;;;17.10;58.20;;;;;;5002455;28;20462;-85
2023/06/02 07:44:59;;;;;;;7.33;4.60;;;17.30;58.20;;;;;;5004372;28;20493;-85
2023/06/02 07:47:26;;;;;;;7.20;4.10;;;17.40;57.50;;;;;;5018498;28;20478;-82
2023/06/02 07:49:56;;;;;;;6.10;3.80;;;17.30;57.10;;;;;;5002649;28;20512;-85
2023/06/02 07:52:26;;;;;;;4.90;3.73;;;17.30;57.20;;;;;;5002889;28;20490;-84
2023/06/02 07:54:57;;;;;;;6.97;3.90;;;17.70;56.70;;;;;;5002430;28;20534;-84
2023/06/02 07:57:29;;;;;;;7.50;3.77;;;17.80;56.40;;;;;;5005114;28;20498;-86
2023/06/02 08:00:27;;;;;;;7.50;4.50;;;17.70;56.10;;;;;;4999328;28;20450;-84
2023/06/02 08:02:57;;;;;;;7.30;4.03;;;17.60;56.10;;;;;;4998775;28;20553;-87
2023/06/02 08:05:31;;;;;;;6.33;3.80;;;17.70;56.40;;;;;;5003234;28;20995;-87
2023/06/02 08:08:14;;;;;;;5.77;3.67;;;17.60;56.60;;;;;;5000259;28;20500;-86
2023/06/02 08:10:42;;;;;;;5.83;3.53;;;17.60;56.70;;;;;;5000400;28;20937;-85
2023/06/02 08:13:20;;;;;;;6.67;3.40;;;18.00;56.20;;;;;;5002434;28;20484;-85
2023/06/02 08:15:53;;;;;;;6.27;4.73;;;18.20;56.20;;;;;;5006075;28;20469;-87
2023/06/02 08:18:42;;;;;;;7.87;3.37;;;18.50;55.70;;;;;;5006351;28;20573;-82
2023/06/02 08:21:12;;;;;;;8.80;4.10;;;18.40;55.30;;;;;;5003159;28;20470;-85
2023/06/02 08:23:43;;;;;;;6.20;4.17;;;18.40;55.20;;;;;;5006012;28;20880;-83
2023/06/02 08:26:15;;;;;;;11.03;4.13;;;18.40;54.70;;;;;;5006032;28;20918;-85
2023/06/02 08:28:49;;;;;;;5.70;4.50;;;18.60;54.60;;;;;;5006119;28;20524;-86
2023/06/02 08:31:20;;;;;;;8.10;4.50;;;19.40;54.10;;;;;;5002999;28;20996;-84
2023/06/02 08:33:52;;;;;;;8.83;4.37;;;19.50;52.90;;;;;;5004914;28;20458;-85
2023/06/02 08:36:26;;;;;;;6.33;4.70;;;19.60;52.50;;;;;;5022698;28;20465;-86
2023/06/02 08:38:58;;;;;;;15.63;4.80;;;19.60;52.00;;;;;;5009006;28;21850;-85
2023/06/02 08:41:40;;;;;;;8.10;4.63;;;19.10;52.60;;;;;;5007306;28;20473;-83
2023/06/02 08:44:14;;;;;;;5.00;4.50;;;18.80;53.40;;;;;;5009658;28;20506;-83
2023/06/02 08:46:49;;;;;;;6.10;4.07;;;19.00;52.40;;;;;;5009081;28;20477;-83
2023/06/02 08:49:21;;;;;;;8.60;4.80;;;18.60;53.30;;;;;;5009129;28;20476;-84
2023/06/02 08:52:00;;;;;;;5.90;4.67;;;18.60;53.70;;;;;;5016312;28;20463;-83
2023/06/02 08:54:34;;;;;;;4.83;4.40;;;18.90;53.40;;;;;;5027356;28;20533;-83
2023/06/02 08:57:05;;;;;;;6.47;4.20;;;19.00;53.70;;;;;;5022738;28;20545;-83
2023/06/02 08:59:36;;;;;;;9.07;6.10;;;19.50;52.80;;;;;;5021223;28;20445;-85
2023/06/02 09:02:06;;;;;;;5.17;4.10;;;20.10;51.70;;;;;;5000639;28;20553;-85
2023/06/02 09:04:45;;;;;;;4.73;4.10;;;20.40;50.80;;;;;;5002722;28;20477;-82
2023/06/02 09:07:22;;;;;;;5.20;4.80;;;21.00;50.30;;;;;;5001577;28;20478;-84
2023/06/02 09:09:57;;;;;;;6.87;4.80;;;22.40;47.90;;;;;;5013307;28;20497;-84
2023/06/02 09:12:51;;;;;;;5.80;4.93;;;22.40;47.70;;;;;;5026827;28;20474;-83
2023/06/02 09:15:25;;;;;;;12.70;5.43;;;22.40;46.40;;;;;;5024931;28;20434;-82
2023/06/02 09:18:15;;;;;;;6.10;4.00;;;22.00;47.20;;;;;;5025154;28;20469;-82
2023/06/02 09:20:48;;;;;;;5.33;4.50;;;21.90;47.00;;;;;;5024497;28;20450;-81
2023/06/02 09:23:22;;;;;;;9.40;4.57;;;22.40;47.10;;;;;;5021180;28;20446;-83
2023/06/02 09:25:51;;;;;;;6.23;4.47;;;22.70;46.50;;;;;;5019354;28;20734;-84
2023/06/02 09:28:18;;;;;;;7.20;5.03;;;23.10;46.50;;;;;;5007734;28;20474;-86
2023/06/02 09:31:03;;;;;;;5.30;4.00;;;23.00;45.70;;;;;;4998899;28;20454;-87
2023/06/02 09:33:34;;;;;;;8.83;4.70;;;23.50;45.50;;;;;;4997166;28;20493;-86
2023/06/02 09:36:04;;;;;;;6.63;4.17;;;23.30;44.50;;;;;;4999086;28;20574;-85
2023/06/02 09:38:45;;;;;;;5.33;4.13;;;23.00;45.00;;;;;;5002180;28;20479;-83
2023/06/02 09:41:17;;;;;;;7.50;3.73;;;23.20;45.40;;;;;;5004229;28;20457;-86
2023/06/02 09:43:46;;;;;;;7.63;4.13;;;23.60;44.60;;;;;;5003062;28;20451;-83
2023/06/02 09:46:16;;;;;;;5.30;4.80;;;25.30;43.20;;;;;;5036436;28;20451;-87
2023/06/02 09:49:00;;;;;;;9.83;4.90;;;26.30;40.60;;;;;;5017729;28;20462;-85
2023/06/02 09:51:28;;;;;;;9.23;5.13;;;25.90;40.50;;;;;;5004623;28;20458;-83
2023/06/02 09:53:58;;;;;;;4.83;4.30;;;25.20;40.30;;;;;;4998773;28;20482;-85
2023/06/02 09:56:36;;;;;;;11.63;5.03;;;24.70;41.20;;;;;;4998436;28;20457;-84
2023/06/02 09:59:08;;;;;;;5.17;4.60;;;24.10;42.00;;;;;;4999008;28;20505;-83
2023/06/02 10:01:38;;;;;;;8.00;4.20;;;24.50;42.30;;;;;;5001159;28;20456;-85
2023/06/02 10:04:06;;;;;;;5.70;4.60;;;25.00;41.70;;;;;;4999440;28;21134;-85
2023/06/02 10:07:06;;;;;;;6.00;4.30;;;26.00;40.80;;;;;;5001257;28;20558;-85
2023/06/02 10:13:33;;;;;;;4.40;3.90;;;25.60;41.00;;;;;;4999343;28;20560;-84
2023/06/02 10:16:16;;;;;;;5.20;4.10;;;26.00;39.80;;;;;;5002226;28;20451;-86
2023/06/02 10:19:27;;;;;;;5.07;3.93;;;25.50;40.00;;;;;;5016617;28;20453;-85
2023/06/02 10:22:35;;;;;;;4.77;3.77;;;26.40;40.30;;;;;;4973136;28;20458;-84
2023/06/02 10:25:48;;;;;;;4.97;4.33;;;26.60;38.90;;;;;;5015862;28;20846;-85
2023/06/02 10:28:22;;;;;;;5.43;4.03;;;27.30;37.90;;;;;;4999617;28;20505;-84
2023/06/02 10:31:15;;;;;;;6.17;4.73;;;27.00;38.10;;;;;;5013064;28;20561;-85
2023/06/02 10:33:58;;;;;;;6.17;5.30;;;26.20;38.20;;;;;;5001934;28;20488;-85
2023/06/02 10:36:48;;;;;;;7.60;4.93;;;26.50;38.70;;;;;;5001044;28;20472;-85
2023/06/02 10:39:40;;;;;;;5.93;4.43;;;26.40;38.60;;;;;;4996246;28;20451;-84
2023/06/02 10:42:15;;;;;;;4.40;4.00;;;26.40;39.10;;;;;;5001791;28;20472;-83
2023/06/02 10:44:47;;;;;;;4.73;4.13;;;26.60;38.90;;;;;;5017302;28;20458;-84
2023/06/02 10:47:21;;;;;;;4.90;4.40;;;27.00;38.20;;;;;;4994924;28;20486;-85
2023/06/02 10:50:11;;;;;;;4.77;4.37;;;27.10;38.40;;;;;;4987338;28;20461;-84
2023/06/02 10:53:04;;;;;;;5.20;4.77;;;26.60;38.30;;;;;;4992614;28;20558;-83
2023/06/02 10:55:32;;;;;;;5.13;4.43;;;27.20;38.10;;;;;;4994363;28;20540;-84
2023/06/02 10:58:03;;;;;;;5.23;4.80;;;27.20;37.70;;;;;;4994214;28;20540;-84
2023/06/02 11:00:39;;;;;;;5.80;4.70;;;26.10;38.80;;;;;;4993174;28;20463;-83
2023/06/02 11:03:05;;;;;;;4.83;4.13;;;25.50;39.70;;;;;;5007720;28;20923;-84
2023/06/02 11:06:15;;;;;;;4.93;4.43;;;25.60;40.50;;;;;;4994362;28;20478;-86
2023/06/02 11:08:47;;;;;;;8.47;4.53;;;25.70;40.30;;;;;;4990963;28;21342;-84
2023/06/02 11:11:52;;;;;;;6.03;5.13;;;25.30;40.40;;;;;;4993412;28;20962;-85
2023/06/02 11:14:45;;;;;;;6.33;5.60;;;25.10;41.30;;;;;;4995696;28;20581;-84
2023/06/02 11:17:30;;;;;;;5.80;4.77;;;26.10;39.80;;;;;;4993700;28;21841;-84
2023/06/02 11:20:10;;;;;;;5.37;4.87;;;26.20;39.80;;;;;;4996659;28;22128;-85
2023/06/02 11:23:19;;;;;;;5.00;4.50;;;25.80;40.00;;;;;;5009624;28;20458;-83
2023/06/02 11:26:21;;;;;;;4.97;4.53;;;26.10;39.90;;;;;;4997482;28;20542;-84
2023/06/02 11:29:19;;;;;;;5.10;4.50;;;27.40;38.10;;;;;;4995966;28;20461;-85
2023/06/02 11:31:54;;;;;;;5.50;4.30;;;26.50;38.40;;;;;;4993386;28;20508;-85
2023/06/02 11:34:44;;;;;;;6.03;5.23;;;25.50;39.30;;;;;;5001511;28;20550;-84
2023/06/02 11:37:16;;;;;;;5.93;4.77;;;25.60;40.00;;;;;;4996210;28;20486;-84
2023/06/02 11:39:56;;;;;;;4.67;4.17;;;26.30;39.60;;;;;;4998950;28;20443;-85
2023/06/02 11:42:45;;;;;;;7.10;4.80;;;27.10;38.30;;;;;;5001142;28;20513;-83
2023/06/02 11:45:24;;;;;;;5.80;5.13;;;26.60;38.00;;;;;;5000963;28;20445;-85
2023/06/02 11:48:02;;;;;;;9.53;5.47;;;26.60;37.60;;;;;;4999876;28;21457;-84
2023/06/02 11:50:35;;;;;;;8.13;5.10;;;26.00;38.30;;;;;;4999470;28;20968;-84
2023/06/02 11:53:21;;;;;;;13.63;5.00;;;27.00;38.00;;;;;;5009872;28;20481;-86
2023/06/02 11:56:01;;;;;;;4.80;4.43;;;27.00;37.30;;;;;;4998593;28;20451;-85
2023/06/02 11:58:56;;;;;;;6.47;5.23;;;27.20;38.00;;;;;;5101034;22;20524;-84
2023/06/02 12:01:34;;;;;;;5.70;5.10;;;27.70;36.50;;;;;;5002737;28;20915;-84
2023/06/02 12:04:13;;;;;;;5.70;5.10;;;26.70;36.90;;;;;;5003587;28;20454;-85
2023/06/02 12:06:55;;;;;;;6.87;4.50;;;26.10;38.20;;;;;;5010473;28;20484;-84
2023/06/02 12:09:29;;;;;;;5.67;5.17;;;25.70;38.30;;;;;;5004011;28;20458;-84
2023/06/02 12:12:09;;;;;;;5.57;5.00;;;25.40;38.90;;;;;;5008523;28;20948;-84
2023/06/02 12:14:39;;;;;;;6.07;5.30;;;26.30;38.10;;;;;;5004489;28;20478;-85
2023/06/02 12:17:13;;;;;;;6.60;4.50;;;27.30;36.90;;;;;;5009803;28;20482;-84
2023/06/02 12:19:43;;;;;;;4.90;4.13;;;26.80;37.20;;;;;;5006662;28;20447;-84
2023/06/02 12:22:17;;;;;;;5.10;4.60;;;26.30;38.00;;;;;;5007212;28;20537;-86
2023/06/02 12:24:47;;;;;;;5.23;4.23;;;26.60;37.60;;;;;;5005357;28;20961;-85
2023/06/02 12:27:27;;;;;;;5.00;4.27;;;26.20;37.90;;;;;;5001762;28;20489;-84
2023/06/02 12:29:57;;;;;;;5.70;4.40;;;26.60;37.90;;;;;;4999770;28;20643;-85
2023/06/02 12:32:29;;;;;;;4.27;3.73;;;26.40;37.70;;;;;;5023104;28;20449;-82
2023/06/02 12:34:58;;;;;;;7.47;4.20;;;26.80;37.70;;;;;;5018630;28;20484;-84
2023/06/02 12:37:29;;;;;;;5.37;3.77;;;26.40;37.40;;;;;;5013298;28;20477;-84
2023/06/02 12:39:59;;;;;;;5.87;3.50;;;26.00;38.20;;;;;;5010608;28;20458;-84
2023/06/02 12:42:26;;;;;;;4.40;3.47;;;25.50;38.00;;;;;;5011095;28;20491;-83
2023/06/02 12:44:55;;;;;;;4.27;3.10;;;25.90;38.80;;;;;;5016298;28;20450;-82
2023/06/02 12:47:22;;;;;;;6.07;2.73;;;25.90;38.60;;;;;;5017261;28;20477;-83
2023/06/02 12:50:02;;;;;;;4.43;2.80;;;25.90;39.80;;;;;;5012711;28;20458;-82
2023/06/02 12:52:36;;;;;;;4.17;3.23;;;25.90;38.60;;;;;;5014917;28;20487;-81
2023/06/02 12:55:22;;;;;;;5.60;3.37;;;26.10;38.70;;;;;;5002150;28;20976;-82
2023/06/02 12:58:00;;;;;;;4.30;2.80;;;26.30;37.00;;;;;;5000356;28;20481;-81
2023/06/02 13:00:31;;;;;;;3.77;2.87;;;26.40;36.90;;;;;;5001745;28;20465;-85
2023/06/02 13:03:11;;;;;;;3.30;2.90;;;26.50;36.90;;;;;;5002019;28;20446;-82
2023/06/02 13:05:59;;;;;;;4.03;3.63;;;26.70;37.40;;;;;;4994325;28;20458;-84
2023/06/02 13:08:46;;;;;;;5.87;3.00;;;26.90;36.70;;;;;;5020163;28;20573;-81
2023/06/02 13:11:26;;;;;;;4.03;2.80;;;27.20;36.40;;;;;;5007641;28;20455;-85
2023/06/02 13:14:09;;;;;;;5.20;3.07;;;26.50;36.00;;;;;;5003796;28;20520;-81
2023/06/02 13:22:06;;;;;;;4.67;3.37;;;25.70;37.90;;;;;;5006401;28;20900;-81
2023/06/02 13:25:06;;;;;;;3.67;3.20;;;26.30;38.30;;;;;;4990928;28;20453;-83
2023/06/02 13:27:47;;;;;;;3.10;2.70;;;26.50;37.60;;;;;;4989344;28;20471;-84
2023/06/02 13:30:28;;;;;;;5.53;3.60;;;26.10;38.10;;;;;;4985965;28;20470;-81